createdAt,value
2018-07-14T00:01:48.512Z,10.17
2018-07-14T00:04:18.006Z,9.90
2018-07-14T00:06:47.520Z,10.03
2018-07-14T00:09:17.120Z,10.10
2018-07-14T00:11:46.680Z,10.40
2018-07-14T00:14:16.197Z,9.77
2018-07-14T00:16:45.708Z,9.53
2018-07-14T00:19:15.281Z,10.70
2018-07-14T00:21:44.811Z,9.23
2018-07-14T00:24:14.339Z,9.90
2018-07-14T00:26:43.889Z,9.60
2018-07-14T00:29:13.411Z,9.10
2018-07-14T00:31:42.851Z,9.20
2018-07-14T00:34:12.363Z,9.47
2018-07-14T00:36:41.996Z,10.43
2018-07-14T00:39:11.477Z,10.00
2018-07-14T00:41:41.042Z,10.60
2018-07-14T00:44:10.543Z,9.83
2018-07-14T00:46:40.056Z,9.20
2018-07-14T00:49:09.583Z,10.07
2018-07-14T00:51:39.118Z,10.37
2018-07-14T00:54:08.639Z,10.20
2018-07-14T00:56:38.174Z,10.60
2018-07-14T00:59:07.644Z,10.47
2018-07-14T01:01:37.102Z,10.47
2018-07-14T01:04:06.613Z,10.13
2018-07-14T01:06:36.122Z,9.27
2018-07-14T01:09:06.520Z,10.90
2018-07-14T01:11:36.027Z,10.83
2018-07-14T01:14:05.517Z,11.80
2018-07-14T01:16:35.066Z,10.83
2018-07-14T01:19:04.564Z,9.90
2018-07-14T01:21:34.075Z,10.23
2018-07-14T01:24:03.611Z,10.10
2018-07-14T01:26:33.106Z,10.23
2018-07-14T01:29:02.635Z,10.33
2018-07-14T01:31:32.322Z,10.97
2018-07-14T01:34:01.789Z,11.03
2018-07-14T01:36:31.300Z,10.13
2018-07-14T01:39:00.782Z,11.47
2018-07-14T01:41:30.274Z,12.27
2018-07-14T01:43:59.768Z,11.50
2018-07-14T01:46:29.352Z,10.90
2018-07-14T01:48:58.803Z,11.60
2018-07-14T01:51:28.325Z,11.30
2018-07-14T01:53:58.212Z,11.30
2018-07-14T01:56:27.686Z,13.03
2018-07-14T01:58:57.230Z,12.37
2018-07-14T02:01:26.748Z,11.30
2018-07-14T02:03:56.249Z,13.40
2018-07-14T02:06:25.717Z,11.40
2018-07-14T02:08:55.238Z,10.90
2018-07-14T02:11:24.740Z,10.90
2018-07-14T02:13:54.234Z,11.50
2018-07-14T02:16:23.703Z,12.77
2018-07-14T02:18:53.210Z,12.13
2018-07-14T02:21:22.759Z,11.70
2018-07-14T02:23:52.260Z,11.10
2018-07-14T02:26:21.759Z,12.20
2018-07-14T02:28:51.231Z,12.50
2018-07-14T02:31:20.808Z,12.00
2018-07-14T02:33:50.127Z,12.73
2018-07-14T02:36:19.590Z,12.73
2018-07-14T02:38:49.085Z,12.40
2018-07-14T02:41:18.582Z,11.93
2018-07-14T02:43:48.114Z,11.97
2018-07-14T02:46:17.650Z,12.53
2018-07-14T02:48:47.228Z,13.40
2018-07-14T02:51:16.682Z,12.60
2018-07-14T02:53:45.766Z,12.23
2018-07-14T02:56:15.136Z,12.67
2018-07-14T02:58:44.663Z,12.03
2018-07-14T03:01:14.216Z,12.20
2018-07-14T03:03:43.671Z,12.20
2018-07-14T03:06:13.512Z,13.60
2018-07-14T03:08:42.970Z,12.27
2018-07-14T03:11:12.634Z,12.77
2018-07-14T03:13:42.124Z,11.50
2018-07-14T03:16:11.627Z,11.97
2018-07-14T03:18:41.101Z,12.17
2018-07-14T03:21:10.677Z,12.73
2018-07-14T03:23:40.222Z,12.83
2018-07-14T03:26:09.699Z,12.50
2018-07-14T03:28:39.283Z,12.47
2018-07-14T03:31:08.779Z,12.90
2018-07-14T03:33:38.333Z,12.17
2018-07-14T03:36:07.815Z,12.17
2018-07-14T03:38:37.362Z,13.30
2018-07-14T03:41:07.090Z,12.53
2018-07-14T03:43:36.669Z,13.40
2018-07-14T03:46:06.307Z,12.90
2018-07-14T03:48:35.868Z,12.50
2018-07-14T03:51:05.395Z,12.50
2018-07-14T03:53:34.906Z,14.03
2018-07-14T03:56:04.541Z,13.77
2018-07-14T03:58:34.136Z,13.30
2018-07-14T04:01:03.704Z,13.17
2018-07-14T04:03:32.895Z,12.50
2018-07-14T04:06:02.318Z,12.80
2018-07-14T04:08:31.829Z,11.57
2018-07-14T04:11:01.363Z,11.23
2018-07-14T04:13:30.898Z,12.73
2018-07-14T04:16:00.474Z,14.30
2018-07-14T04:18:30.150Z,13.13
2018-07-14T04:20:59.733Z,14.50
2018-07-14T04:23:29.425Z,14.73
2018-07-14T04:25:59.040Z,13.73
2018-07-14T04:28:28.591Z,14.03
2018-07-14T04:30:58.187Z,14.23
2018-07-14T04:33:27.728Z,13.57
2018-07-14T04:35:57.284Z,14.00
2018-07-14T04:38:26.809Z,13.87
2018-07-14T04:40:56.858Z,12.70
2018-07-14T04:43:26.767Z,14.07
2018-07-14T04:45:56.386Z,13.80
2018-07-14T04:48:25.984Z,12.40
2018-07-14T04:50:56.113Z,16.33
2018-07-14T04:53:25.717Z,15.00
2018-07-14T04:55:55.316Z,13.80
2018-07-14T04:58:24.872Z,13.87
2018-07-14T05:00:54.820Z,15.10
2018-07-14T05:03:24.403Z,15.67
2018-07-14T05:05:53.997Z,17.13
2018-07-14T05:08:23.813Z,16.07
2018-07-14T05:10:53.795Z,15.60
2018-07-14T05:13:23.353Z,16.17
2018-07-14T05:15:52.925Z,15.73
2018-07-14T05:18:22.099Z,15.00
2018-07-14T05:20:51.564Z,14.60
2018-07-14T05:23:21.141Z,12.07
2018-07-14T05:25:50.737Z,10.83
2018-07-14T05:28:20.300Z,12.20
2018-07-14T05:30:49.895Z,11.07
2018-07-14T05:33:19.511Z,9.97
2018-07-14T05:35:49.153Z,10.53
2018-07-14T05:38:18.359Z,8.97
2018-07-14T05:40:47.792Z,8.27
2018-07-14T05:43:17.372Z,8.20
2018-07-14T05:45:46.930Z,7.93
2018-07-14T05:48:16.602Z,7.50
2018-07-14T05:50:46.257Z,7.07
2018-07-14T05:53:15.894Z,7.50
2018-07-14T05:55:45.725Z,7.10
2018-07-14T05:58:15.294Z,7.17
2018-07-14T06:00:45.053Z,6.57
2018-07-14T06:03:19.718Z,6.47
2018-07-14T06:05:49.639Z,8.13
2018-07-14T06:08:19.290Z,6.63
2018-07-14T06:10:49.093Z,6.63
2018-07-14T06:13:18.770Z,5.53
2018-07-14T06:15:48.657Z,6.30
2018-07-14T06:18:18.283Z,6.23
2018-07-14T06:20:47.852Z,6.33
2018-07-14T06:23:17.491Z,6.20
2018-07-14T06:25:47.049Z,6.03
2018-07-14T06:28:16.690Z,6.53
2018-07-14T06:30:46.336Z,5.77
2018-07-14T06:33:16.105Z,6.40
2018-07-14T06:35:46.120Z,6.93
2018-07-14T06:38:15.991Z,6.53
2018-07-14T06:40:45.685Z,6.70
2018-07-14T06:43:15.292Z,6.80
2018-07-14T06:45:44.953Z,6.40
2018-07-14T06:48:14.975Z,6.27
2018-07-14T06:50:44.586Z,4.90
2018-07-14T06:53:14.984Z,4.50
2018-07-14T06:55:44.565Z,4.20
2018-07-14T06:58:14.232Z,5.00
2018-07-14T07:00:43.839Z,4.67
2018-07-14T07:03:13.501Z,4.63
2018-07-14T07:05:43.086Z,4.43
2018-07-14T07:08:12.710Z,5.00
2018-07-14T07:10:42.310Z,4.83
2018-07-14T07:13:11.875Z,5.47
2018-07-14T07:15:41.412Z,4.77
2018-07-14T07:18:10.985Z,4.33
2018-07-14T07:20:40.571Z,4.40
2018-07-14T07:23:10.092Z,4.13
2018-07-14T07:25:39.780Z,4.30
2018-07-14T07:28:09.316Z,4.40
2018-07-14T07:30:38.901Z,4.30
2018-07-14T07:33:08.519Z,5.20
2018-07-14T07:35:38.367Z,4.80
2018-07-14T07:38:08.934Z,5.07
2018-07-14T07:40:38.548Z,5.43
2018-07-14T07:43:08.325Z,5.30
2018-07-14T07:45:37.961Z,5.23
2018-07-14T07:48:08.064Z,4.60
2018-07-14T07:50:37.656Z,4.80
2018-07-14T07:53:07.375Z,4.33
2018-07-14T07:55:37.029Z,4.27
2018-07-14T07:58:06.610Z,5.30
2018-07-14T08:00:36.184Z,4.43
2018-07-14T08:03:06.157Z,4.50
2018-07-14T08:05:35.789Z,3.90
2018-07-14T08:08:05.981Z,4.10
2018-07-14T08:10:35.641Z,4.23
2018-07-14T08:13:05.325Z,4.00
2018-07-14T08:15:34.899Z,4.50
2018-07-14T08:18:04.402Z,4.60
2018-07-14T08:20:33.991Z,4.10
2018-07-14T08:23:03.700Z,4.70
2018-07-14T08:25:33.296Z,5.33
2018-07-14T08:28:02.923Z,4.80
2018-07-14T08:30:32.593Z,5.10
2018-07-14T08:33:02.137Z,5.57
2018-07-14T08:35:31.756Z,4.70
2018-07-14T08:38:01.389Z,5.53
2018-07-14T08:40:31.041Z,5.80
2018-07-14T08:43:00.655Z,5.27
2018-07-14T08:45:30.205Z,5.73
2018-07-14T08:47:59.766Z,6.70
2018-07-14T08:50:29.356Z,7.07
2018-07-14T08:52:58.976Z,6.00
2018-07-14T08:55:28.542Z,6.73
2018-07-14T08:57:58.187Z,7.77
2018-07-14T09:00:27.781Z,7.30
2018-07-14T09:02:57.355Z,7.03
2018-07-14T09:05:26.908Z,8.23
2018-07-14T09:07:56.511Z,8.57
2018-07-14T09:10:26.518Z,8.43
2018-07-14T09:12:56.197Z,8.00
2018-07-14T09:15:25.848Z,8.83
2018-07-14T09:17:55.410Z,8.50
2018-07-14T09:20:25.080Z,8.70
2018-07-14T09:22:54.638Z,8.50
2018-07-14T09:25:24.275Z,8.60
2018-07-14T09:27:53.949Z,8.50
2018-07-14T09:30:23.742Z,8.77
2018-07-14T09:32:53.434Z,9.03
2018-07-14T09:35:23.559Z,9.50
2018-07-14T09:37:53.558Z,9.60
2018-07-14T09:40:23.158Z,9.83
2018-07-14T09:42:52.874Z,9.90
2018-07-14T09:45:22.564Z,9.50
2018-07-14T09:47:52.293Z,10.70
2018-07-14T09:50:21.868Z,9.07
2018-07-14T09:52:51.525Z,10.10
2018-07-14T09:55:21.362Z,10.30
2018-07-14T09:57:50.584Z,9.97
2018-07-14T10:00:25.176Z,10.67
2018-07-14T10:02:54.802Z,10.93
2018-07-14T10:05:24.468Z,10.23
2018-07-14T10:07:53.625Z,10.77
2018-07-14T10:10:23.516Z,11.23
2018-07-14T10:12:53.175Z,11.73
2018-07-14T10:15:23.530Z,11.23
2018-07-14T10:17:53.433Z,11.70
2018-07-14T10:20:23.907Z,12.13
2018-07-14T10:22:53.903Z,12.33
2018-07-14T10:25:24.036Z,12.33
2018-07-14T10:27:59.596Z,11.40
2018-07-14T10:30:30.349Z,11.87
2018-07-14T10:33:00.194Z,12.17
2018-07-14T10:35:29.871Z,11.77
2018-07-14T10:37:59.536Z,11.10
2018-07-14T10:40:29.162Z,11.20
2018-07-14T10:42:58.774Z,11.00
2018-07-14T10:45:28.419Z,9.70
2018-07-14T10:47:58.001Z,11.17
2018-07-14T10:50:27.652Z,10.87
2018-07-14T10:52:57.354Z,10.67
2018-07-14T10:55:26.978Z,11.70
2018-07-14T10:57:56.602Z,11.27
2018-07-14T11:00:26.396Z,9.53
2018-07-14T11:02:56.021Z,9.83
2018-07-14T11:05:25.685Z,8.93
2018-07-14T11:07:55.588Z,8.70
2018-07-14T11:10:25.206Z,9.23
2018-07-14T11:12:54.827Z,9.17
2018-07-14T11:15:24.463Z,9.00
2018-07-14T11:17:54.192Z,8.53
2018-07-14T11:20:23.830Z,7.67
2018-07-14T11:22:53.589Z,6.90
2018-07-14T11:25:23.450Z,6.40
2018-07-14T11:27:52.894Z,6.80
2018-07-14T11:30:22.505Z,6.40
2018-07-14T11:32:52.188Z,6.50
2018-07-14T11:35:22.141Z,6.83
2018-07-14T11:37:51.933Z,6.87
2018-07-14T11:40:21.579Z,5.70
2018-07-14T11:42:51.192Z,5.70
2018-07-14T11:45:20.613Z,5.47
2018-07-14T11:47:50.188Z,5.80
2018-07-14T11:50:19.783Z,5.77
2018-07-14T11:52:49.523Z,5.27
2018-07-14T11:55:18.735Z,5.50
2018-07-14T11:57:48.506Z,5.47
2018-07-14T12:00:18.268Z,5.63
2018-07-14T12:02:47.990Z,4.93
2018-07-14T12:05:17.710Z,5.80
2018-07-14T12:07:47.337Z,4.90
2018-07-14T12:10:17.078Z,4.70
2018-07-14T12:12:50.162Z,5.20
2018-07-14T12:15:19.427Z,5.57
2018-07-14T12:17:48.958Z,5.07
2018-07-14T12:20:20.705Z,6.20
2018-07-14T12:22:50.483Z,5.40
2018-07-14T12:25:20.203Z,5.37
2018-07-14T12:27:49.878Z,4.87
2018-07-14T12:30:23.659Z,5.20
2018-07-14T12:32:53.526Z,5.70
2018-07-14T12:35:23.608Z,4.80
2018-07-14T12:37:53.295Z,5.00
2018-07-14T12:40:22.502Z,5.10
2018-07-14T12:42:52.198Z,5.90
2018-07-14T12:45:21.412Z,5.40
2018-07-14T12:47:51.305Z,5.23
2018-07-14T12:50:21.122Z,5.47
2018-07-14T12:52:50.836Z,4.80
2018-07-14T12:55:20.463Z,5.00
2018-07-14T12:57:50.234Z,5.20
2018-07-14T13:00:19.979Z,5.70
2018-07-14T13:02:49.716Z,4.80
2018-07-14T13:05:19.474Z,5.70
2018-07-14T13:07:48.729Z,5.27
2018-07-14T13:10:18.438Z,6.40
2018-07-14T13:12:48.154Z,5.77
2018-07-14T13:15:17.982Z,5.37
2018-07-14T13:17:47.744Z,5.90
2018-07-14T13:20:17.452Z,5.80
2018-07-14T13:22:50.645Z,6.43
2018-07-14T13:25:20.234Z,5.30
2018-07-14T13:27:49.901Z,5.17
2018-07-14T13:30:19.663Z,6.20
2018-07-14T13:32:49.263Z,7.07
2018-07-14T13:35:19.393Z,5.47
2018-07-14T13:37:49.016Z,5.53
2018-07-14T13:40:19.438Z,4.70
2018-07-14T13:42:49.044Z,5.33
2018-07-14T13:45:18.677Z,4.90
2018-07-14T13:47:48.335Z,4.50
2018-07-14T13:50:18.010Z,4.57
2018-07-14T13:52:47.590Z,4.37
2018-07-14T13:55:17.247Z,5.00
2018-07-14T13:57:46.973Z,4.37
2018-07-14T14:00:16.967Z,4.20
2018-07-14T14:02:46.634Z,4.73
2018-07-14T14:05:16.307Z,4.27
2018-07-14T14:07:46.692Z,4.10
2018-07-14T14:10:16.296Z,3.80
2018-07-14T14:12:46.309Z,4.60
2018-07-14T14:15:15.963Z,3.70
2018-07-14T14:17:45.578Z,3.20
2018-07-14T14:20:15.156Z,4.17
2018-07-14T14:22:44.766Z,3.57
2018-07-14T14:25:14.831Z,3.70
2018-07-14T14:27:44.542Z,3.60
2018-07-14T14:30:14.544Z,3.67
2018-07-14T14:32:46.812Z,3.43
2018-07-14T14:35:16.582Z,3.70
2018-07-14T14:37:47.348Z,3.60
2018-07-14T14:40:17.478Z,4.00
2018-07-14T14:42:47.666Z,3.40
2018-07-14T14:45:17.477Z,3.57
2018-07-14T14:47:47.636Z,3.20
2018-07-14T14:50:17.548Z,3.43
2018-07-14T14:52:47.255Z,3.53
2018-07-14T14:55:16.913Z,3.40
2018-07-14T14:57:59.723Z,3.23
2018-07-14T15:00:29.974Z,3.77
2018-07-14T15:02:59.659Z,3.23
2018-07-14T15:05:29.399Z,3.27
2018-07-14T15:07:59.092Z,3.10
2018-07-14T15:10:28.895Z,3.03
2018-07-14T15:12:58.611Z,3.27
2018-07-14T15:15:28.352Z,3.27
2018-07-14T15:17:58.023Z,3.17
2018-07-14T15:20:27.741Z,2.43
2018-07-14T15:22:57.439Z,3.00
2018-07-14T15:25:27.193Z,3.10
2018-07-14T15:27:56.830Z,2.97
2018-07-14T15:30:26.540Z,3.20
2018-07-14T15:32:59.965Z,3.13
2018-07-14T15:35:29.605Z,2.53
2018-07-14T15:37:59.341Z,2.97
2018-07-14T15:40:29.126Z,2.47
2018-07-14T15:42:58.923Z,2.37
2018-07-14T15:45:28.638Z,2.83
2018-07-14T15:47:58.362Z,2.93
2018-07-14T15:50:28.100Z,2.60
2018-07-14T15:52:57.848Z,2.50
2018-07-14T15:55:27.550Z,3.00
2018-07-14T15:57:57.421Z,2.40
2018-07-14T16:00:27.156Z,3.00
2018-07-14T16:02:56.817Z,2.57
2018-07-14T16:05:27.608Z,2.47
2018-07-14T16:07:58.550Z,2.33
2018-07-14T16:10:28.077Z,2.30
2018-07-14T16:12:57.683Z,2.60
2018-07-14T16:15:27.723Z,2.63
2018-07-14T16:17:57.489Z,3.13
2018-07-14T16:20:29.311Z,2.30
2018-07-14T16:22:59.377Z,2.87
2018-07-14T16:25:29.016Z,2.57
2018-07-14T16:27:58.590Z,2.50
2018-07-14T16:30:28.290Z,2.90
2018-07-14T16:32:58.323Z,2.63
2018-07-14T16:35:28.206Z,2.77
2018-07-14T16:37:57.778Z,2.73
2018-07-14T16:40:27.537Z,2.50
2018-07-14T16:42:57.255Z,2.57
2018-07-14T16:45:27.070Z,2.57
2018-07-14T16:47:57.514Z,2.40
2018-07-14T16:50:27.186Z,2.60
2018-07-14T16:52:56.890Z,2.12
2018-07-14T16:55:26.582Z,2.42
2018-07-14T16:57:56.549Z,2.60
2018-07-14T17:00:27.242Z,2.77
2018-07-14T17:02:56.984Z,2.70
2018-07-14T17:05:26.732Z,2.55
2018-07-14T17:07:56.365Z,2.47
2018-07-14T17:10:26.037Z,2.50
2018-07-14T17:12:55.682Z,2.60
2018-07-14T17:15:26.045Z,2.52
2018-07-14T17:17:55.648Z,2.40
2018-07-14T17:20:26.284Z,2.30
2018-07-14T17:22:56.081Z,2.55
2018-07-14T17:25:25.773Z,2.37
2018-07-14T17:27:55.854Z,2.52
2018-07-14T17:30:25.607Z,2.58
2018-07-14T17:32:55.332Z,2.47
2018-07-14T17:35:25.031Z,2.70
2018-07-14T17:37:54.860Z,2.40
2018-07-14T17:40:24.646Z,2.45
2018-07-14T17:42:54.403Z,2.25
2018-07-14T17:45:24.206Z,2.40
2018-07-14T17:47:53.885Z,2.20
2018-07-14T17:50:24.523Z,1.90
2018-07-14T17:52:54.303Z,2.10
2018-07-14T17:55:24.027Z,2.47
2018-07-14T17:57:53.778Z,2.60
2018-07-14T18:00:24.876Z,2.17
2018-07-14T18:02:54.919Z,2.17
2018-07-14T18:05:24.626Z,2.37
2018-07-14T18:07:54.574Z,2.07
2018-07-14T18:10:24.293Z,2.10
2018-07-14T18:12:54.993Z,2.27
2018-07-14T18:15:24.796Z,2.33
2018-07-14T18:17:54.488Z,2.07
2018-07-14T18:20:24.162Z,2.80
2018-07-14T18:22:53.836Z,2.10
2018-07-14T18:25:23.569Z,2.20
2018-07-14T18:27:53.334Z,2.30
2018-07-14T18:30:23.152Z,2.27
2018-07-14T18:32:53.118Z,2.53
2018-07-14T18:35:23.071Z,2.20
2018-07-14T18:37:52.797Z,2.30
2018-07-14T18:40:22.479Z,2.40
2018-07-14T18:42:52.376Z,2.30
2018-07-14T18:45:22.152Z,2.40
2018-07-14T18:47:52.335Z,2.60
2018-07-14T18:50:22.630Z,2.40
2018-07-14T18:52:52.517Z,2.23
2018-07-14T18:55:22.242Z,2.10
2018-07-14T18:57:52.444Z,2.40
2018-07-14T19:00:22.389Z,1.90
2018-07-14T19:02:52.598Z,2.00
2018-07-14T19:05:22.757Z,2.30
2018-07-14T19:07:52.716Z,2.20
2018-07-14T19:10:22.496Z,2.00
2018-07-14T19:12:57.047Z,2.20
2018-07-14T19:15:27.004Z,2.17
2018-07-14T19:17:56.888Z,2.43
2018-07-14T19:20:26.625Z,2.50
2018-07-14T19:22:56.294Z,2.20
2018-07-14T19:25:25.971Z,2.67
2018-07-14T19:27:56.599Z,2.60
2018-07-14T19:30:26.657Z,2.57
2018-07-14T19:32:56.524Z,2.60
2018-07-14T19:35:26.416Z,2.27
2018-07-14T19:37:56.158Z,2.10
2018-07-14T19:40:26.146Z,2.73
2018-07-14T19:42:56.091Z,2.50
2018-07-14T19:45:25.657Z,2.80
2018-07-14T19:47:55.441Z,3.00
2018-07-14T19:50:25.220Z,3.10
2018-07-14T19:52:55.138Z,2.50
2018-07-14T19:55:24.846Z,3.07
2018-07-14T19:57:54.760Z,2.90
2018-07-14T20:00:24.771Z,2.77
2018-07-14T20:02:54.880Z,2.80
2018-07-14T20:05:25.109Z,3.30
2018-07-14T20:07:55.411Z,2.77
2018-07-14T20:10:25.565Z,2.43
2018-07-14T20:12:55.502Z,2.43
2018-07-14T20:15:26.244Z,3.10
2018-07-14T20:17:56.118Z,2.63
2018-07-14T20:20:27.332Z,2.60
2018-07-14T20:23:13.922Z,2.60
2018-07-14T20:26:07.307Z,2.73
2018-07-14T20:28:41.869Z,2.70
2018-07-14T20:31:12.574Z,2.90
2018-07-14T20:33:44.308Z,2.70
2018-07-14T20:36:14.028Z,2.57
2018-07-14T20:38:43.758Z,3.00
2018-07-14T20:41:13.546Z,2.80
2018-07-14T20:43:43.251Z,2.80
2018-07-14T20:46:12.820Z,2.63
2018-07-14T20:48:42.527Z,2.83
2018-07-14T20:51:12.223Z,2.93
2018-07-14T20:53:41.804Z,2.37
2018-07-14T20:56:11.440Z,2.70
2018-07-14T20:58:41.027Z,2.60
2018-07-14T21:01:10.603Z,2.83
2018-07-14T21:03:40.218Z,3.17
2018-07-14T21:06:09.891Z,3.00
2018-07-14T21:08:39.460Z,3.10
2018-07-14T21:11:09.080Z,2.57
2018-07-14T21:13:38.713Z,2.70
2018-07-14T21:16:13.393Z,2.90
2018-07-14T21:18:44.474Z,2.77
2018-07-14T21:21:14.618Z,2.80
2018-07-14T21:23:44.264Z,2.90
2018-07-14T21:26:13.462Z,2.80
2018-07-14T21:28:42.951Z,3.10
2018-07-14T21:31:12.642Z,2.80
2018-07-14T21:33:42.916Z,2.90
2018-07-14T21:36:12.519Z,3.10
2018-07-14T21:38:47.101Z,3.13
2018-07-14T21:41:17.301Z,3.20
2018-07-14T21:43:46.824Z,3.13
2018-07-14T21:46:22.268Z,2.90
2018-07-14T21:48:52.884Z,2.80
2018-07-14T21:51:22.467Z,3.03
2018-07-14T21:53:52.149Z,3.27
2018-07-14T21:56:21.321Z,3.60
2018-07-14T21:58:50.855Z,3.10
2018-07-14T22:01:25.693Z,3.57
2018-07-14T22:03:55.308Z,3.03
2018-07-14T22:06:31.032Z,3.23
2018-07-14T22:09:01.025Z,2.97
2018-07-14T22:11:31.105Z,3.47
2018-07-14T22:14:02.649Z,3.63
2018-07-14T22:16:33.353Z,3.70
2018-07-14T22:19:03.199Z,3.70
2018-07-14T22:21:33.066Z,3.37
2018-07-14T22:24:03.840Z,3.70
2018-07-14T22:26:33.479Z,3.60
2018-07-14T22:29:04.274Z,3.07
2018-07-14T22:31:35.411Z,2.97
2018-07-14T22:34:05.123Z,3.20
2018-07-14T22:36:34.768Z,3.03
2018-07-14T22:39:05.273Z,2.57
2018-07-14T22:41:34.838Z,2.60
2018-07-14T22:44:04.162Z,2.50
2018-07-14T22:46:33.661Z,2.30
2018-07-14T22:49:03.225Z,1.90
2018-07-14T22:51:32.849Z,2.53
2018-07-14T22:54:02.451Z,2.40
2018-07-14T22:56:31.651Z,2.30
2018-07-14T22:59:01.095Z,2.43
2018-07-14T23:01:30.676Z,2.20
2018-07-14T23:04:00.480Z,2.00
2018-07-14T23:06:30.179Z,2.20
2018-07-14T23:08:59.892Z,2.53
2018-07-14T23:11:29.507Z,2.30
2018-07-14T23:13:59.078Z,2.47
2018-07-14T23:16:28.716Z,2.30
2018-07-14T23:18:58.290Z,2.43
2018-07-14T23:21:27.896Z,2.30
2018-07-14T23:23:57.556Z,2.17
2018-07-14T23:26:27.388Z,2.53
2018-07-14T23:28:56.999Z,2.37
2018-07-14T23:31:26.563Z,2.40
2018-07-14T23:33:56.151Z,2.40
2018-07-14T23:36:25.751Z,2.47
2018-07-14T23:38:55.341Z,2.27
2018-07-14T23:41:24.956Z,2.53
2018-07-14T23:43:54.657Z,2.50
2018-07-14T23:46:24.507Z,2.53
2018-07-14T23:48:54.293Z,2.47
2018-07-14T23:51:23.992Z,2.27
2018-07-14T23:53:53.670Z,2.47
2018-07-14T23:56:23.469Z,2.20
2018-07-14T23:58:53.176Z,2.40
